createdAt,value
2019-03-29T00:02:24.455Z,8.22
2019-03-29T00:04:54.456Z,8.24
2019-03-29T00:07:38.488Z,8.23
2019-03-29T00:09:56.522Z,8.21
2019-03-29T00:12:26.564Z,8.27
2019-03-29T00:14:56.734Z,8.28
2019-03-29T00:17:40.996Z,8.25
2019-03-29T00:20:11.163Z,8.24
2019-03-29T00:22:41.200Z,8.22
2019-03-29T00:25:11.444Z,8.24
2019-03-29T00:27:41.553Z,8.28
2019-03-29T00:30:12.245Z,8.35
2019-03-29T00:32:42.361Z,8.34
2019-03-29T00:35:12.616Z,8.30
2019-03-29T00:37:53.461Z,8.24
2019-03-29T00:40:14.881Z,8.29
2019-03-29T00:42:45.296Z,8.34
2019-03-29T00:45:16.768Z,8.33
2019-03-29T00:47:47.126Z,8.17
2019-03-29T00:50:17.314Z,8.20
2019-03-29T00:52:47.376Z,8.22
2019-03-29T00:55:17.608Z,8.23
2019-03-29T00:57:50.465Z,8.26
2019-03-29T01:00:20.887Z,8.21
2019-03-29T01:02:50.885Z,8.25
2019-03-29T01:05:21.223Z,8.25
2019-03-29T01:07:51.545Z,8.23
2019-03-29T01:10:22.214Z,8.25
2019-03-29T01:12:53.141Z,8.19
2019-03-29T01:15:23.707Z,8.19
2019-03-29T01:17:53.949Z,8.18
2019-03-29T01:20:24.050Z,8.20
2019-03-29T01:22:54.401Z,8.18
2019-03-29T01:25:24.728Z,8.16
2019-03-29T01:27:54.882Z,8.12
2019-03-29T01:30:25.052Z,8.10
2019-03-29T01:32:55.436Z,8.06
2019-03-29T01:35:26.461Z,8.00
2019-03-29T01:37:57.506Z,8.00
2019-03-29T01:40:28.157Z,6.96
2019-03-29T01:42:58.889Z,7.96
2019-03-29T01:45:29.169Z,7.94
2019-03-29T01:47:59.233Z,7.94
2019-03-29T01:50:29.787Z,7.91
2019-03-29T01:53:00.523Z,7.90
2019-03-29T01:55:31.020Z,7.96
2019-03-29T01:58:02.384Z,7.90
2019-03-29T02:00:34.456Z,7.89
2019-03-29T02:03:05.513Z,7.84
2019-03-29T02:05:35.675Z,7.77
2019-03-29T02:08:06.711Z,7.78
2019-03-29T02:10:38.042Z,7.78
2019-03-29T02:13:08.118Z,7.76
2019-03-29T02:15:38.545Z,7.75
2019-03-29T02:18:11.233Z,7.71
2019-03-29T02:20:41.478Z,7.68
2019-03-29T02:23:11.805Z,7.67
2019-03-29T02:25:42.454Z,7.59
2019-03-29T02:28:13.866Z,7.55
2019-03-29T02:30:44.509Z,7.51
2019-03-29T02:33:14.871Z,7.55
2019-03-29T02:35:45.151Z,7.51
2019-03-29T02:38:15.320Z,7.51
2019-03-29T02:40:45.548Z,7.46
2019-03-29T02:43:33.528Z,7.46
2019-03-29T02:46:04.085Z,7.45
2019-03-29T02:48:34.585Z,7.43
2019-03-29T02:51:05.186Z,7.43
2019-03-29T02:53:35.627Z,7.43
2019-03-29T02:56:06.307Z,7.50
2019-03-29T02:58:37.105Z,7.50
2019-03-29T03:01:07.330Z,7.43
2019-03-29T03:03:37.725Z,7.43
2019-03-29T03:06:08.125Z,7.50
2019-03-29T03:08:38.139Z,7.43
2019-03-29T03:11:08.214Z,7.45
2019-03-29T03:13:38.485Z,7.45
2019-03-29T03:16:08.681Z,7.49
2019-03-29T03:18:40.202Z,6.47
2019-03-29T03:21:10.248Z,7.44
2019-03-29T03:23:40.289Z,7.50
2019-03-29T03:26:10.715Z,7.50
2019-03-29T03:28:45.807Z,7.49
2019-03-29T03:31:19.593Z,7.55
2019-03-29T03:33:49.571Z,7.59
2019-03-29T03:36:19.550Z,7.54
2019-03-29T03:38:49.875Z,7.62
2019-03-29T03:41:19.944Z,7.63
2019-03-29T03:43:49.981Z,7.69
2019-03-29T03:46:20.192Z,7.70
2019-03-29T03:48:50.199Z,7.70
2019-03-29T03:51:20.322Z,7.67
2019-03-29T03:53:51.146Z,7.68
2019-03-29T03:58:13.544Z,7.63
2019-03-29T04:01:00.055Z,7.69
2019-03-29T04:03:30.200Z,7.74
2019-03-29T04:06:00.582Z,7.74
2019-03-29T04:08:30.868Z,7.77
2019-03-29T04:11:00.961Z,7.78
2019-03-29T04:13:30.987Z,7.79
2019-03-29T04:16:01.678Z,7.82
2019-03-29T04:18:31.797Z,7.86
2019-03-29T04:21:02.078Z,7.86
2019-03-29T04:23:32.264Z,7.88
2019-03-29T04:26:03.173Z,7.87
2019-03-29T04:28:33.337Z,7.84
2019-03-29T04:31:03.594Z,7.88
2019-03-29T04:33:33.854Z,7.92
2019-03-29T04:36:04.012Z,7.92
2019-03-29T04:38:34.108Z,7.90
2019-03-29T04:41:04.990Z,7.91
2019-03-29T04:43:35.252Z,7.91
2019-03-29T04:46:05.865Z,7.91
2019-03-29T04:48:36.054Z,7.95
2019-03-29T04:51:06.372Z,7.95
2019-03-29T04:53:36.708Z,8.00
2019-03-29T04:56:07.262Z,8.00
2019-03-29T04:58:37.823Z,8.01
2019-03-29T05:01:08.207Z,7.98
2019-03-29T05:03:38.452Z,7.10
2019-03-29T05:06:08.852Z,7.79
2019-03-29T05:08:39.140Z,8.00
2019-03-29T05:11:09.562Z,8.01
2019-03-29T05:13:40.069Z,8.01
2019-03-29T05:16:10.561Z,8.01
2019-03-29T05:18:41.154Z,8.03
2019-03-29T05:21:11.448Z,8.02
2019-03-29T05:23:42.226Z,7.99
2019-03-29T05:26:12.542Z,7.99
2019-03-29T05:28:42.788Z,8.06
2019-03-29T05:31:13.356Z,8.12
2019-03-29T05:33:44.091Z,8.12
2019-03-29T05:36:14.522Z,8.14
2019-03-29T05:38:44.931Z,8.15
2019-03-29T05:41:15.755Z,8.20
2019-03-29T05:43:46.133Z,8.16
2019-03-29T05:46:22.443Z,8.16
2019-03-29T05:48:52.627Z,8.17
2019-03-29T05:51:22.651Z,8.17
2019-03-29T05:53:53.360Z,8.16
2019-03-29T05:56:23.531Z,8.20
2019-03-29T05:58:57.223Z,8.21
2019-03-29T06:01:27.360Z,8.20
2019-03-29T06:03:57.840Z,8.17
2019-03-29T06:06:28.247Z,8.16
2019-03-29T06:08:58.582Z,8.20
2019-03-29T06:11:28.712Z,8.20
2019-03-29T06:13:58.962Z,8.22
2019-03-29T06:16:38.995Z,8.17
2019-03-29T06:19:01.438Z,8.21
2019-03-29T06:21:31.716Z,8.24
2019-03-29T06:24:02.164Z,8.23
2019-03-29T06:26:32.623Z,8.26
2019-03-29T06:29:03.199Z,8.20
2019-03-29T06:31:35.300Z,8.16
2019-03-29T06:34:05.656Z,8.24
2019-03-29T06:36:36.447Z,8.29
2019-03-29T06:39:09.546Z,8.32
2019-03-29T06:41:39.813Z,8.37
2019-03-29T06:44:10.069Z,8.40
2019-03-29T06:46:40.282Z,8.48
2019-03-29T06:49:10.974Z,8.47
2019-03-29T06:51:41.118Z,8.50
2019-03-29T06:54:11.284Z,8.56
2019-03-29T06:56:42.166Z,8.60
2019-03-29T06:59:12.326Z,8.63
2019-03-29T07:01:42.355Z,8.67
2019-03-29T07:04:13.018Z,8.67
2019-03-29T07:06:43.314Z,8.80
2019-03-29T07:09:13.489Z,8.83
2019-03-29T07:11:44.063Z,8.91
2019-03-29T07:14:14.329Z,8.96
2019-03-29T07:16:44.491Z,8.98
2019-03-29T07:19:15.293Z,9.02
2019-03-29T07:21:45.535Z,9.05
2019-03-29T07:24:15.983Z,9.03
2019-03-29T07:26:46.105Z,9.04
2019-03-29T07:29:16.286Z,9.06
2019-03-29T07:31:46.679Z,9.06
2019-03-29T07:34:17.181Z,9.13
2019-03-29T07:36:47.564Z,9.19
2019-03-29T07:39:17.645Z,9.22
2019-03-29T07:41:47.893Z,9.23
2019-03-29T07:44:18.383Z,9.27
2019-03-29T07:46:48.527Z,9.43
2019-03-29T07:49:19.276Z,9.43
2019-03-29T07:51:49.577Z,9.47
2019-03-29T07:54:19.605Z,9.48
2019-03-29T07:56:50.143Z,9.46
2019-03-29T07:59:20.848Z,9.39
2019-03-29T08:01:51.003Z,9.39
2019-03-29T08:04:22.098Z,9.52
2019-03-29T08:06:53.604Z,9.52
2019-03-29T08:09:23.956Z,9.60
2019-03-29T08:11:55.376Z,9.52
2019-03-29T08:14:26.019Z,9.48
2019-03-29T08:16:56.500Z,9.64
2019-03-29T08:19:26.904Z,9.67
2019-03-29T08:21:57.971Z,9.62
2019-03-29T08:24:28.349Z,9.62
2019-03-29T08:26:58.727Z,9.58
2019-03-29T08:29:31.390Z,9.66
2019-03-29T08:32:01.045Z,9.75
2019-03-29T08:34:31.244Z,9.85
2019-03-29T08:37:01.415Z,9.92
2019-03-29T08:39:31.912Z,9.88
2019-03-29T08:42:02.678Z,9.91
2019-03-29T08:44:32.924Z,9.87
2019-03-29T08:47:03.167Z,9.86
2019-03-29T08:49:35.862Z,10.12
2019-03-29T08:52:06.125Z,10.12
2019-03-29T08:54:36.258Z,10.14
2019-03-29T08:57:06.507Z,10.26
2019-03-29T08:59:36.764Z,10.28
2019-03-29T09:02:07.895Z,10.27
2019-03-29T09:04:38.331Z,10.37
2019-03-29T09:07:08.421Z,10.48
2019-03-29T09:09:38.960Z,10.73
2019-03-29T09:12:14.605Z,10.74
2019-03-29T09:14:41.254Z,10.65
2019-03-29T09:17:11.282Z,10.50
2019-03-29T09:19:41.691Z,10.45
2019-03-29T09:22:12.135Z,10.47
2019-03-29T09:24:42.216Z,10.54
2019-03-29T09:27:12.399Z,10.58
2019-03-29T09:29:42.658Z,10.64
2019-03-29T09:32:12.756Z,10.62
2019-03-29T09:34:43.360Z,10.63
2019-03-29T09:37:13.597Z,10.66
2019-03-29T09:39:43.642Z,10.69
2019-03-29T09:42:27.808Z,10.79
2019-03-29T09:44:45.746Z,10.83
2019-03-29T09:47:15.955Z,10.88
2019-03-29T09:49:46.648Z,10.90
2019-03-29T09:52:16.698Z,10.79
2019-03-29T09:54:47.022Z,10.93
2019-03-29T09:57:17.262Z,11.03
2019-03-29T09:59:47.431Z,11.09
2019-03-29T10:02:17.922Z,11.09
2019-03-29T10:04:48.487Z,11.04
2019-03-29T10:07:18.769Z,11.15
2019-03-29T10:09:48.879Z,11.14
2019-03-29T10:12:19.015Z,11.29
2019-03-29T10:14:49.315Z,11.29
2019-03-29T10:17:19.358Z,11.36
2019-03-29T10:19:50.201Z,11.39
2019-03-29T10:22:20.372Z,11.66
2019-03-29T10:24:50.632Z,11.85
2019-03-29T10:27:20.962Z,12.01
2019-03-29T10:29:51.094Z,12.02
2019-03-29T10:32:21.535Z,11.95
2019-03-29T10:34:52.223Z,11.96
2019-03-29T10:37:22.297Z,12.16
2019-03-29T10:39:52.450Z,12.34
2019-03-29T10:42:22.978Z,12.32
2019-03-29T10:44:53.106Z,12.39
2019-03-29T10:47:23.123Z,12.30
2019-03-29T10:49:53.735Z,11.93
2019-03-29T10:52:23.849Z,12.04
2019-03-29T10:54:54.289Z,12.24
2019-03-29T10:57:24.376Z,12.39
2019-03-29T10:59:54.380Z,12.28
2019-03-29T11:02:24.761Z,12.10
2019-03-29T11:04:55.070Z,12.07
2019-03-29T11:07:25.044Z,12.14
2019-03-29T11:09:55.313Z,12.11
2019-03-29T11:12:25.465Z,12.06
2019-03-29T11:14:55.524Z,12.00
2019-03-29T11:17:25.869Z,12.15
2019-03-29T11:19:56.234Z,12.26
2019-03-29T11:22:26.254Z,12.10
2019-03-29T11:24:56.544Z,12.14
2019-03-29T11:27:26.743Z,11.93
2019-03-29T11:29:57.439Z,12.16
2019-03-29T11:32:27.569Z,12.23
2019-03-29T11:34:58.262Z,12.23
2019-03-29T11:37:28.490Z,12.31
2019-03-29T11:39:58.599Z,12.49
2019-03-29T11:42:28.763Z,12.65
2019-03-29T11:44:58.820Z,12.63
2019-03-29T11:47:28.973Z,12.60
2019-03-29T11:49:59.885Z,12.62
2019-03-29T11:52:29.949Z,12.74
2019-03-29T11:55:00.417Z,12.82
2019-03-29T11:57:30.567Z,12.49
2019-03-29T12:00:01.078Z,12.19
2019-03-29T12:02:31.867Z,12.33
2019-03-29T12:05:02.661Z,12.24
2019-03-29T12:07:32.710Z,12.23
2019-03-29T12:10:02.744Z,12.17
2019-03-29T12:12:33.008Z,12.17
2019-03-29T12:15:02.979Z,12.28
2019-03-29T12:17:33.133Z,12.45
2019-03-29T12:20:03.680Z,12.54
2019-03-29T12:22:33.685Z,12.32
2019-03-29T12:25:03.889Z,12.48
2019-03-29T12:27:33.980Z,12.74
2019-03-29T12:30:04.539Z,12.90
2019-03-29T12:32:34.871Z,12.78
2019-03-29T12:35:05.665Z,12.45
2019-03-29T12:37:35.734Z,12.41
2019-03-29T12:40:06.267Z,12.49
2019-03-29T12:42:36.323Z,12.57
2019-03-29T12:45:06.651Z,12.65
2019-03-29T12:47:37.330Z,12.55
2019-03-29T12:50:07.932Z,12.46
2019-03-29T12:52:38.233Z,12.73
2019-03-29T12:55:08.505Z,12.65
2019-03-29T12:57:39.139Z,12.62
2019-03-29T13:00:10.522Z,12.61
2019-03-29T13:02:40.748Z,12.57
2019-03-29T13:05:11.647Z,12.51
2019-03-29T13:07:41.880Z,12.55
2019-03-29T13:10:13.513Z,12.27
2019-03-29T13:12:43.676Z,12.53
2019-03-29T13:15:14.181Z,12.57
2019-03-29T13:17:44.315Z,12.43
2019-03-29T13:20:15.016Z,12.48
2019-03-29T13:22:45.199Z,12.64
2019-03-29T13:25:15.447Z,12.60
2019-03-29T13:27:45.656Z,12.63
2019-03-29T13:30:17.281Z,12.70
2019-03-29T13:32:47.781Z,12.21
2019-03-29T13:35:18.138Z,11.77
2019-03-29T13:37:48.417Z,12.05
2019-03-29T13:40:21.034Z,12.11
2019-03-29T13:42:51.029Z,12.13
2019-03-29T13:45:21.213Z,12.12
2019-03-29T13:47:51.307Z,12.31
2019-03-29T13:50:22.053Z,12.45
2019-03-29T13:52:52.064Z,12.23
2019-03-29T13:55:22.157Z,12.43
2019-03-29T13:57:52.541Z,12.53
2019-03-29T14:00:22.546Z,12.39
2019-03-29T14:02:52.666Z,12.34
2019-03-29T14:05:23.220Z,12.26
2019-03-29T14:07:53.264Z,12.37
2019-03-29T14:10:23.336Z,12.38
2019-03-29T14:12:53.777Z,12.18
2019-03-29T14:15:23.870Z,12.02
2019-03-29T14:17:54.209Z,12.16
2019-03-29T14:20:32.940Z,12.25
2019-03-29T14:23:04.618Z,12.10
2019-03-29T14:25:34.738Z,12.11
2019-03-29T14:28:04.949Z,11.98
2019-03-29T14:30:35.049Z,12.08
2019-03-29T14:33:05.143Z,11.96
2019-03-29T14:35:35.997Z,11.98
2019-03-29T14:38:06.037Z,12.07
2019-03-29T14:40:36.113Z,12.13
2019-03-29T14:43:06.368Z,12.24
2019-03-29T14:45:36.622Z,12.18
2019-03-29T14:48:06.757Z,12.17
2019-03-29T14:50:37.230Z,12.22
2019-03-29T14:53:07.358Z,12.13
2019-03-29T14:55:37.355Z,12.12
2019-03-29T14:58:07.841Z,12.13
2019-03-29T15:00:39.921Z,12.15
2019-03-29T15:03:10.290Z,12.14
2019-03-29T15:05:41.036Z,12.13
2019-03-29T15:08:11.347Z,12.20
2019-03-29T15:10:41.353Z,12.24
2019-03-29T15:13:11.494Z,12.23
2019-03-29T15:15:41.928Z,12.18
2019-03-29T15:18:12.020Z,12.20
2019-03-29T15:20:53.324Z,12.14
2019-03-29T15:23:14.532Z,12.18
2019-03-29T15:25:44.597Z,12.18
2019-03-29T15:28:14.609Z,12.15
2019-03-29T15:30:45.007Z,12.09
2019-03-29T15:33:15.090Z,12.12
2019-03-29T15:35:45.677Z,12.09
2019-03-29T15:38:16.189Z,12.04
2019-03-29T15:40:46.225Z,12.04
2019-03-29T15:43:16.430Z,12.03
2019-03-29T15:45:46.756Z,12.04
2019-03-29T15:48:16.770Z,12.08
2019-03-29T15:50:47.466Z,12.07
2019-03-29T15:53:17.722Z,12.02
2019-03-29T15:55:48.066Z,11.93
2019-03-29T15:58:18.162Z,11.92
2019-03-29T16:00:48.312Z,11.82
2019-03-29T16:03:18.678Z,11.79
2019-03-29T16:05:49.264Z,11.78
2019-03-29T16:08:19.626Z,11.78
2019-03-29T16:10:49.865Z,11.76
2019-03-29T16:13:20.116Z,11.68
2019-03-29T16:15:50.148Z,11.74
2019-03-29T16:18:20.234Z,11.67
2019-03-29T16:20:50.842Z,11.65
2019-03-29T16:23:21.114Z,11.67
2019-03-29T16:25:51.361Z,11.66
2019-03-29T16:28:21.532Z,11.68
2019-03-29T16:30:51.863Z,11.68
2019-03-29T16:33:22.158Z,11.61
2019-03-29T16:35:52.494Z,10.60
2019-03-29T16:38:22.760Z,11.67
2019-03-29T16:40:53.073Z,11.64
2019-03-29T16:43:23.198Z,11.56
2019-03-29T16:45:53.235Z,11.51
2019-03-29T16:48:23.793Z,11.43
2019-03-29T16:50:54.416Z,11.46
2019-03-29T16:53:24.492Z,11.44
2019-03-29T16:55:54.860Z,11.40
2019-03-29T16:58:24.948Z,11.42
2019-03-29T17:00:55.018Z,11.44
2019-03-29T17:03:25.328Z,11.45
2019-03-29T17:05:55.790Z,11.43
2019-03-29T17:08:25.968Z,11.36
2019-03-29T17:10:58.633Z,11.30
2019-03-29T17:13:28.988Z,11.18
2019-03-29T17:16:02.002Z,11.10
2019-03-29T17:18:31.129Z,11.10
2019-03-29T17:21:01.602Z,11.07
2019-03-29T17:23:31.664Z,11.06
2019-03-29T17:26:02.545Z,11.00
2019-03-29T17:28:32.609Z,10.99
2019-03-29T17:31:05.078Z,10.90
2019-03-29T17:33:35.201Z,10.84
2019-03-29T17:36:05.446Z,10.81
2019-03-29T17:38:35.707Z,10.78
2019-03-29T17:41:05.792Z,9.84
2019-03-29T17:43:36.261Z,10.71
2019-03-29T17:46:16.128Z,10.69
2019-03-29T17:48:39.754Z,10.61
2019-03-29T17:51:10.366Z,10.57
2019-03-29T17:53:40.483Z,10.51
2019-03-29T17:56:10.562Z,10.52
2019-03-29T17:58:40.639Z,10.49
2019-03-29T18:01:10.973Z,10.49
2019-03-29T18:03:41.057Z,10.46
2019-03-29T18:06:11.554Z,10.43
2019-03-29T18:08:42.565Z,10.25
2019-03-29T18:11:12.640Z,10.24
2019-03-29T18:13:42.676Z,10.23
2019-03-29T18:16:13.246Z,10.16
2019-03-29T18:18:43.361Z,10.11
2019-03-29T18:21:14.101Z,10.14
2019-03-29T18:23:44.129Z,10.11
2019-03-29T18:26:14.237Z,10.10
2019-03-29T18:28:44.559Z,10.05
2019-03-29T18:31:14.914Z,9.98
2019-03-29T18:33:45.496Z,9.87
2019-03-29T18:36:16.275Z,9.92
2019-03-29T18:38:48.341Z,9.94
2019-03-29T18:41:18.440Z,9.91
2019-03-29T18:43:49.344Z,9.79
2019-03-29T18:46:19.584Z,9.79
2019-03-29T18:48:49.700Z,9.75
2019-03-29T18:51:20.339Z,9.74
2019-03-29T18:53:50.893Z,9.69
2019-03-29T18:56:21.407Z,9.66
2019-03-29T18:58:51.550Z,9.62
2019-03-29T19:01:22.005Z,9.60
2019-03-29T19:03:52.036Z,9.65
2019-03-29T19:06:23.590Z,9.54
2019-03-29T19:08:53.709Z,9.58
2019-03-29T19:11:23.887Z,9.53
2019-03-29T19:13:53.959Z,9.51
2019-03-29T19:16:24.231Z,9.50
2019-03-29T19:18:54.702Z,9.41
2019-03-29T19:21:25.786Z,9.41
2019-03-29T19:23:56.226Z,9.42
2019-03-29T19:26:26.273Z,9.41
2019-03-29T19:28:56.521Z,9.32
2019-03-29T19:31:26.932Z,9.32
2019-03-29T19:33:57.041Z,9.29
2019-03-29T19:36:28.179Z,9.25
2019-03-29T19:38:58.434Z,9.05
2019-03-29T19:41:28.637Z,9.15
2019-03-29T19:43:58.766Z,9.17
2019-03-29T19:46:28.983Z,9.21
2019-03-29T19:48:59.109Z,9.21
2019-03-29T19:51:29.679Z,9.11
2019-03-29T19:54:07.305Z,9.13
2019-03-29T19:56:32.064Z,9.16
2019-03-29T19:59:02.125Z,9.18
2019-03-29T20:01:32.306Z,9.13
2019-03-29T20:04:02.606Z,9.13
2019-03-29T20:06:32.970Z,9.11
2019-03-29T20:09:03.738Z,9.15
2019-03-29T20:11:35.411Z,9.22
2019-03-29T20:14:06.216Z,9.15
2019-03-29T20:16:36.540Z,8.79
2019-03-29T20:19:07.046Z,8.84
2019-03-29T20:21:37.357Z,8.92
2019-03-29T20:24:07.394Z,8.92
2019-03-29T20:26:37.852Z,8.92
2019-03-29T20:29:07.968Z,8.99
2019-03-29T20:31:38.382Z,9.01
2019-03-29T20:34:08.590Z,8.91
2019-03-29T20:36:38.764Z,8.86
2019-03-29T20:39:09.246Z,8.93
2019-03-29T20:41:39.509Z,8.86
2019-03-29T20:44:09.824Z,8.86
2019-03-29T20:46:40.152Z,8.89
2019-03-29T20:49:10.270Z,8.89
2019-03-29T20:51:40.455Z,8.84
2019-03-29T20:54:10.955Z,8.82
2019-03-29T20:56:41.590Z,8.77
2019-03-29T20:59:11.696Z,8.82
2019-03-29T21:01:41.922Z,8.82
2019-03-29T21:04:12.079Z,8.84
2019-03-29T21:06:42.307Z,8.88
2019-03-29T21:09:12.643Z,8.79
2019-03-29T21:11:42.723Z,8.79
2019-03-29T21:14:13.006Z,8.85
2019-03-29T21:16:43.124Z,8.85
2019-03-29T21:19:13.145Z,8.68
2019-03-29T21:21:43.479Z,8.72
2019-03-29T21:24:13.520Z,8.79
2019-03-29T21:26:43.605Z,8.77
2019-03-29T21:29:13.893Z,8.76
2019-03-29T21:31:43.981Z,8.80
2019-03-29T21:34:14.081Z,8.81
2019-03-29T21:36:44.596Z,8.74
2019-03-29T21:39:15.185Z,8.78
2019-03-29T21:41:45.551Z,8.85
2019-03-29T21:44:15.658Z,8.89
2019-03-29T21:46:46.164Z,8.93
2019-03-29T21:49:16.401Z,8.93
2019-03-29T21:51:46.654Z,8.78
2019-03-29T21:54:18.540Z,8.76
2019-03-29T21:56:48.668Z,8.62
2019-03-29T21:59:18.996Z,8.69
2019-03-29T22:01:49.445Z,8.71
2019-03-29T22:04:19.653Z,8.72
2019-03-29T22:06:50.414Z,8.80
2019-03-29T22:09:21.031Z,8.74
2019-03-29T22:11:51.754Z,8.77
2019-03-29T22:14:22.044Z,8.75
2019-03-29T22:16:52.478Z,8.67
2019-03-29T22:19:22.732Z,8.67
2019-03-29T22:21:53.113Z,8.67
2019-03-29T22:24:23.281Z,8.66
2019-03-29T22:26:53.285Z,8.66
2019-03-29T22:29:23.525Z,8.67
2019-03-29T22:31:53.808Z,8.58
2019-03-29T22:34:24.139Z,8.60
2019-03-29T22:36:54.526Z,8.57
2019-03-29T22:39:24.750Z,8.61
2019-03-29T22:41:55.049Z,8.64
2019-03-29T22:44:25.089Z,8.59
2019-03-29T22:46:55.351Z,8.59
2019-03-29T22:49:25.702Z,8.63
2019-03-29T22:51:56.248Z,8.61
2019-03-29T22:54:26.549Z,8.61
2019-03-29T22:56:56.982Z,8.62
2019-03-29T22:59:27.298Z,8.60
2019-03-29T23:01:57.476Z,8.60
2019-03-29T23:04:27.638Z,8.53
2019-03-29T23:06:57.767Z,8.53
2019-03-29T23:09:27.937Z,8.42
2019-03-29T23:11:58.100Z,8.44
2019-03-29T23:14:28.430Z,8.50
2019-03-29T23:16:58.501Z,8.37
2019-03-29T23:19:28.525Z,8.48
2019-03-29T23:21:58.891Z,8.52
2019-03-29T23:24:28.990Z,8.50
2019-03-29T23:26:59.169Z,8.53
2019-03-29T23:29:29.523Z,8.49
2019-03-29T23:31:59.766Z,8.54
2019-03-29T23:34:30.152Z,8.52
2019-03-29T23:37:00.326Z,8.47
2019-03-29T23:39:30.448Z,8.49
2019-03-29T23:42:00.932Z,8.48
2019-03-29T23:44:31.001Z,8.47
2019-03-29T23:47:01.172Z,8.42
2019-03-29T23:49:31.387Z,8.42
2019-03-29T23:52:02.279Z,8.49
2019-03-29T23:54:32.335Z,8.49
2019-03-29T23:57:02.551Z,8.26
2019-03-29T23:59:33.134Z,8.34
